Time;durP1;ratioP1;P1;durP2;ratioP2;P2;SDS_P1;SDS_P2;PMS_P1;PMS_P2;Temp;Humidity;BMP_temperature;BMP_pressure;BME280_temperature;BME280_humidity;BME280_pressure;Samples;Min_cycle;Max_cycle;Signal;HPM_P1;HPM_P2
2023/11/18 00:00:58;;;;;;;3.40;0.77;;;;;;;10.91;100.00;99365.53;4830978;29;20456;-96
2023/11/18 00:04:00;;;;;;;;;;;;;;;;;;;;;
2023/11/18 00:06:32;;;;;;;1.77;0.60;;;;;;;10.98;100.00;99354.25;4878228;29;20037;-96
2023/11/18 00:09:03;;;;;;;1.60;0.55;;;;;;;11.01;100.00;99344.16;4867614;29;20419;-95
2023/11/18 00:11:35;;;;;;;1.63;0.70;;;;;;;11.05;100.00;99349.94;4869798;29;20038;-95
2023/11/18 00:14:22;;;;;;;;;;;;;;;;;;;;;
2023/11/18 00:16:59;;;;;;;0.50;0.50;;;;;;;11.07;100.00;99340.00;4894823;29;20060;-96
2023/11/18 00:19:45;;;;;;;0.85;0.50;;;;;;;11.16;100.00;99341.59;4874314;29;20064;-96
2023/11/18 00:22:34;;;;;;;2.28;0.65;;;;;;;11.09;100.00;99330.06;4875684;29;20127;-96
2023/11/18 00:25:12;;;;;;;0.55;0.55;;;;;;;11.21;100.00;99334.97;4869079;29;20036;-95
2023/11/18 00:28:18;;;;;;;1.52;0.63;;;;;;;11.22;100.00;99340.06;4880940;29;20024;-96
2023/11/18 00:32:15;;;;;;;1.17;0.50;;;;;;;11.22;100.00;99329.50;4869853;29;20032;-96
2023/11/18 00:34:34;;;;;;;1.85;0.50;;;;;;;11.28;100.00;99322.66;4883536;29;20044;-95
2023/11/18 00:37:39;;;;;;;0.43;0.38;;;;;;;11.32;100.00;99317.84;4889255;29;20063;-96
2023/11/18 00:40:49;;;;;;;1.50;0.60;;;;;;;11.35;100.00;99314.84;4888847;29;20024;-96
2023/11/18 00:50:41;;;;;;;1.48;0.60;;;;;;;11.45;100.00;99290.81;4880193;29;20052;-96
2023/11/18 00:53:23;;;;;;;0.95;0.50;;;;;;;11.40;100.00;99283.41;4878042;29;20028;-96
2023/11/18 00:56:17;;;;;;;3.35;0.90;;;;;;;11.47;100.00;99296.72;4897506;29;20807;-96
2023/11/18 00:59:03;;;;;;;3.38;1.30;;;;;;;11.56;100.00;99294.84;4884501;29;20128;-96
2023/11/18 01:01:56;;;;;;;2.90;1.20;;;;;;;11.64;100.00;99302.69;4898550;29;20546;-96
2023/11/18 01:04:57;;;;;;;0.60;0.43;;;;;;;11.62;100.00;99289.66;4900584;29;20478;-96
2023/11/18 01:07:38;;;;;;;1.15;0.40;;;;;;;11.77;100.00;99294.13;4861853;29;20147;-96
2023/11/18 01:10:17;;;;;;;1.10;0.20;;;;;;;11.79;100.00;99281.53;4886738;29;20475;-96
2023/11/18 01:13:09;;;;;;;;;;;;;;;;;;;;;
2023/11/18 01:15:38;;;;;;;;;;;;;;;11.91;100.00;99271.34;4889307;29;20032;-96
2023/11/18 01:18:08;;;;;;;0.22;0.22;;;;;;;11.96;100.00;99291.97;4897245;29;19917;-96
2023/11/18 01:20:37;;;;;;;0.82;0.40;;;;;;;11.98;100.00;99274.06;4895680;29;20036;-95
2023/11/18 01:23:05;;;;;;;0.20;0.20;;;;;;;12.00;100.00;99264.94;4881021;29;20123;-93
2023/11/18 01:25:34;;;;;;;1.27;0.40;;;;;;;12.04;100.00;99273.31;4878953;29;20067;-95
2023/11/18 01:28:00;;;;;;;0.32;0.20;;;;;;;12.04;100.00;99265.38;4879185;29;20086;-96
2023/11/18 01:30:29;;;;;;;0.63;0.20;;;;;;;12.06;100.00;99266.03;4862814;29;20048;-95
2023/11/18 01:32:56;;;;;;;0.20;0.20;;;;;;;12.10;100.00;99267.34;4898202;29;20058;-96
2023/11/18 01:35:29;;;;;;;0.20;0.20;;;;;;;12.06;100.00;99257.25;4856280;29;20880;-96
2023/11/18 01:37:57;;;;;;;0.30;0.30;;;;;;;12.14;100.00;99271.25;4879306;29;20071;-96
2023/11/18 01:40:23;;;;;;;0.98;0.30;;;;;;;12.13;100.00;99250.25;4862853;29;20494;-95
2023/11/18 01:42:49;;;;;;;0.20;0.20;;;;;;;12.14;100.00;99250.06;4882139;29;20095;-95
2023/11/18 01:45:19;;;;;;;2.85;0.40;;;;;;;12.20;100.00;99259.09;4888872;29;20033;-96
2023/11/18 01:47:49;;;;;;;0.40;0.30;;;;;;;12.25;100.00;99258.53;4880469;29;20047;-96
2023/11/18 01:50:20;;;;;;;1.85;0.28;;;;;;;12.21;100.00;99254.63;4875976;29;20028;-95
2023/11/18 01:52:47;;;;;;;1.55;0.40;;;;;;;12.23;100.00;99250.78;4893759;29;20060;-95
2023/11/18 01:55:13;;;;;;;0.63;0.43;;;;;;;12.21;100.00;99239.56;4889339;29;20070;-96
2023/11/18 01:57:43;;;;;;;0.60;0.50;;;;;;;12.22;100.00;99237.72;4891645;29;20037;-96
2023/11/18 02:00:11;;;;;;;0.50;0.30;;;;;;;12.24;100.00;99241.00;4876970;29;20035;-95
2023/11/18 02:02:39;;;;;;;0.40;0.40;;;;;;;12.30;100.00;99252.69;4890345;29;20130;-95
2023/11/18 02:05:06;;;;;;;0.50;0.40;;;;;;;12.26;100.00;99229.22;4884234;29;20036;-95
2023/11/18 02:07:36;;;;;;;0.45;0.45;;;;;;;12.31;100.00;99233.16;4882788;29;20613;-95
2023/11/18 02:10:04;;;;;;;0.40;0.30;;;;;;;12.32;100.00;99230.31;4882338;29;20055;-95
2023/11/18 02:12:42;;;;;;;0.82;0.40;;;;;;;12.38;100.00;99242.81;4900132;29;20027;-96
2023/11/18 02:15:12;;;;;;;1.33;0.50;;;;;;;12.37;100.00;99238.53;4899173;29;20048;-96
2023/11/18 02:17:43;;;;;;;0.40;0.40;;;;;;;12.43;100.00;99236.13;4874975;29;20103;-96
2023/11/18 02:20:20;;;;;;;0.40;0.40;;;;;;;12.39;100.00;99233.06;4884323;29;20031;-96
2023/11/18 02:22:56;;;;;;;1.52;0.60;;;;;;;12.39;100.00;99222.44;4881376;29;20072;-96
2023/11/18 02:25:23;;;;;;;;;;;;;;;12.38;100.00;99220.78;4903668;29;20055;-96
2023/11/18 02:27:49;;;;;;;3.33;0.70;;;;;;;12.36;100.00;99233.44;4880060;29;19955;-95
2023/11/18 02:30:18;;;;;;;1.00;0.30;;;;;;;12.35;100.00;99226.47;4893022;29;20510;-94
2023/11/18 02:32:49;;;;;;;3.08;0.50;;;;;;;12.45;100.00;99223.53;4910294;29;20048;-95
2023/11/18 02:35:27;;;;;;;0.40;0.40;;;;;;;12.46;100.00;99225.97;4881006;29;20115;-94
2023/11/18 02:37:55;;;;;;;0.88;0.50;;;;;;;12.40;100.00;99218.78;4870648;29;20044;-96
2023/11/18 02:40:30;;;;;;;0.75;0.45;;;;;;;12.45;100.00;99210.28;4883399;29;20111;-95
2023/11/18 02:43:00;;;;;;;1.85;0.57;;;;;;;12.49;100.00;99211.53;4866006;29;20041;-95
2023/11/18 02:45:27;;;;;;;0.50;0.50;;;;;;;12.47;100.00;99216.22;4876964;29;20049;-95
2023/11/18 02:47:57;;;;;;;0.95;0.50;;;;;;;12.47;100.00;99219.66;4872553;29;20040;-95
2023/11/18 02:50:27;;;;;;;2.20;0.50;;;;;;;12.49;100.00;99209.72;4870309;29;20044;-95
2023/11/18 02:52:56;;;;;;;2.83;1.00;;;;;;;12.55;100.00;99220.56;4864762;29;20036;-95
2023/11/18 02:55:22;;;;;;;1.35;0.65;;;;;;;12.50;100.00;99229.88;4867415;29;20028;-95
2023/11/18 02:57:53;;;;;;;1.77;0.63;;;;;;;12.56;100.00;99238.09;4902624;29;20032;-94
2023/11/18 03:00:23;;;;;;;1.58;0.55;;;;;;;12.51;100.00;99215.66;4877180;29;20039;-95
2023/11/18 03:02:51;;;;;;;0.80;0.70;;;;;;;12.52;100.00;99219.94;4900840;29;20036;-96
2023/11/18 03:05:18;;;;;;;2.53;0.80;;;;;;;12.51;100.00;99205.06;4863871;29;20497;-95
2023/11/18 03:07:50;;;;;;;3.65;0.68;;;;;;;12.53;100.00;99207.50;4887181;29;20097;-95
2023/11/18 03:10:22;;;;;;;1.15;0.43;;;;;;;12.55;100.00;99188.78;4898728;29;20032;-95
2023/11/18 03:12:52;;;;;;;0.68;0.45;;;;;;;12.58;100.00;99197.16;4886503;29;20062;-94
2023/11/18 03:15:19;;;;;;;1.77;0.60;;;;;;;12.56;100.00;99187.75;4892537;29;20036;-95
2023/11/18 03:17:49;;;;;;;0.50;0.50;;;;;;;12.57;100.00;99184.91;4899894;29;20028;-94
2023/11/18 03:20:19;;;;;;;2.15;0.60;;;;;;;12.57;100.00;99165.53;4882775;29;20052;-95
2023/11/18 03:22:49;;;;;;;0.70;0.50;;;;;;;12.60;100.00;99181.88;4867067;29;21324;-95
2023/11/18 03:25:17;;;;;;;1.63;0.55;;;;;;;12.59;100.00;99168.81;4885151;29;20024;-95
2023/11/18 03:27:44;;;;;;;1.00;0.50;;;;;;;12.57;100.00;99178.78;4886000;29;20465;-96
2023/11/18 03:30:12;;;;;;;3.28;0.60;;;;;;;12.52;100.00;99177.53;4867695;29;20636;-95
2023/11/18 03:32:41;;;;;;;2.92;0.63;;;;;;;12.59;100.00;99184.72;4900643;29;20060;-95
2023/11/18 03:35:11;;;;;;;1.88;0.63;;;;;;;12.54;100.00;99180.00;4914745;29;20028;-95
2023/11/18 03:37:41;;;;;;;0.95;0.50;;;;;;;12.59;100.00;99192.69;4886066;29;20531;-94
2023/11/18 03:40:11;;;;;;;6.32;0.40;;;;;;;12.61;100.00;99202.06;4885148;29;20055;-96
2023/11/18 03:42:43;;;;;;;3.60;0.40;;;;;;;12.59;100.00;99187.38;4890306;29;20037;-96
2023/11/18 03:45:09;;;;;;;1.30;0.47;;;;;;;12.64;100.00;99192.94;4882452;29;20056;-95
2023/11/18 03:47:36;;;;;;;1.00;0.68;;;;;;;12.60;100.00;99191.66;4901927;29;20091;-95
2023/11/18 03:50:02;;;;;;;0.63;0.55;;;;;;;12.66;100.00;99190.94;4902228;29;20036;-96
2023/11/18 03:52:28;;;;;;;1.45;0.50;;;;;;;12.64;100.00;99179.69;4872768;29;20063;-94
2023/11/18 03:54:57;;;;;;;1.13;0.55;;;;;;;12.67;100.00;99175.81;4860261;29;20403;-94
2023/11/18 03:57:23;;;;;;;4.20;0.63;;;;;;;12.63;100.00;99170.91;4902695;29;20418;-96
2023/11/18 03:59:50;;;;;;;0.60;0.30;;;;;;;12.64;100.00;99166.44;4881077;29;20032;-95
2023/11/18 04:02:18;;;;;;;2.15;0.47;;;;;;;12.63;100.00;99156.81;4883372;29;20051;-95
2023/11/18 04:04:48;;;;;;;0.52;0.35;;;;;;;12.72;100.00;99157.53;4910764;29;20044;-95
2023/11/18 04:07:14;;;;;;;1.38;0.60;;;;;;;12.66;100.00;99143.22;4880489;29;20043;-94
2023/11/18 04:09:43;;;;;;;2.60;0.40;;;;;;;12.65;100.00;99146.84;4883034;29;20039;-95
2023/11/18 04:12:16;;;;;;;0.55;0.40;;;;;;;12.65;100.00;99134.44;4877526;29;20048;-94
2023/11/18 04:14:41;;;;;;;0.55;0.43;;;;;;;12.69;100.00;99139.34;4884549;29;20032;-95
2023/11/18 04:17:10;;;;;;;0.47;0.47;;;;;;;12.67;100.00;99141.34;4868731;29;20035;-94
2023/11/18 04:19:38;;;;;;;0.40;0.30;;;;;;;12.68;100.00;99143.00;4900908;29;20040;-96
2023/11/18 04:22:04;;;;;;;0.75;0.22;;;;;;;12.68;100.00;99132.41;4899489;29;20046;-94
2023/11/18 04:24:30;;;;;;;0.38;0.20;;;;;;;12.63;100.00;99127.66;4901847;29;20036;-96
2023/11/18 04:26:57;;;;;;;1.98;0.30;;;;;;;12.60;100.00;99122.72;4883872;29;20028;-96
2023/11/18 04:29:23;;;;;;;2.58;0.30;;;;;;;12.57;100.00;99123.94;4914351;29;20052;-96
2023/11/18 04:31:49;;;;;;;3.17;0.30;;;;;;;12.52;100.00;99113.09;4873868;29;20045;-95
2023/11/18 04:34:16;;;;;;;0.93;0.30;;;;;;;12.48;100.00;99112.66;4886202;29;20052;-96
2023/11/18 04:36:42;;;;;;;1.15;0.20;;;;;;;12.48;100.00;99109.19;4883923;29;20041;-95
2023/11/18 04:39:11;;;;;;;1.08;0.22;;;;;;;12.48;100.00;99098.59;4884294;29;20805;-96
2023/11/18 04:41:37;;;;;;;1.35;0.20;;;;;;;12.45;100.00;99091.03;4892112;29;20048;-96
2023/11/18 04:44:04;;;;;;;4.90;0.45;;;;;;;12.40;100.00;99083.63;4879618;29;20119;-94
2023/11/18 04:46:34;;;;;;;2.45;0.40;;;;;;;12.38;100.00;99083.84;4883637;29;20056;-95
2023/11/18 04:49:01;;;;;;;3.03;0.57;;;;;;;12.36;100.00;99072.59;4868484;29;20099;-95
2023/11/18 04:51:27;;;;;;;6.75;0.73;;;;;;;12.33;100.00;99077.44;4880669;29;20040;-95
2023/11/18 04:53:53;;;;;;;4.28;0.43;;;;;;;12.27;100.00;99084.34;4871557;29;20081;-95
2023/11/18 04:56:19;;;;;;;7.18;0.73;;;;;;;12.30;100.00;99086.59;4865942;29;20036;-95
2023/11/18 04:58:46;;;;;;;9.23;0.82;;;;;;;12.27;100.00;99101.06;4862787;29;20052;-94
2023/11/18 05:01:13;;;;;;;4.22;0.65;;;;;;;12.25;100.00;99095.13;4883786;29;20025;-96
2023/11/18 05:03:39;;;;;;;5.38;0.88;;;;;;;12.25;100.00;99091.63;4881168;29;20044;-94
2023/11/18 05:06:05;;;;;;;10.10;0.75;;;;;;;12.25;100.00;99083.69;4900652;29;20476;-94
2023/11/18 05:08:33;;;;;;;8.13;1.20;;;;;;;12.22;100.00;99089.38;4862312;29;20044;-95
2023/11/18 05:10:59;;;;;;;12.40;1.67;;;;;;;12.22;100.00;99074.31;4879318;29;20033;-95
2023/11/18 05:13:27;;;;;;;10.82;1.25;;;;;;;12.20;100.00;99071.00;4879437;29;20048;-93
2023/11/18 05:15:54;;;;;;;10.02;1.90;;;;;;;12.14;100.00;99071.78;4864477;29;20388;-95
2023/11/18 05:18:21;;;;;;;13.48;2.03;;;;;;;12.18;100.00;99086.28;4891472;29;20128;-96
2023/11/18 05:20:47;;;;;;;15.50;1.30;;;;;;;12.12;100.00;99085.19;4891087;29;20032;-95
2023/11/18 05:23:13;;;;;;;12.18;1.40;;;;;;;12.15;100.00;99095.41;4882388;29;20032;-96
2023/11/18 05:25:43;;;;;;;11.60;2.13;;;;;;;12.12;100.00;99082.56;4868197;29;20038;-95
2023/11/18 05:28:11;;;;;;;16.58;2.25;;;;;;;12.12;100.00;99098.44;4867665;29;20127;-94
2023/11/18 05:30:37;;;;;;;17.98;1.85;;;;;;;12.14;100.00;99090.31;4871692;29;20032;-96
2023/11/18 05:33:08;;;;;;;25.88;2.90;;;;;;;12.12;100.00;99095.00;4885644;29;20036;-95
2023/11/18 05:35:34;;;;;;;18.92;2.78;;;;;;;12.15;100.00;99092.78;4885581;29;20072;-95
2023/11/18 05:38:02;;;;;;;19.75;2.28;;;;;;;12.18;100.00;99104.84;4882701;29;20036;-94
2023/11/18 05:40:29;;;;;;;23.05;3.85;;;;;;;12.17;100.00;99100.53;4869155;29;20056;-96
2023/11/18 05:42:55;;;;;;;25.95;2.88;;;;;;;12.22;100.00;99094.66;4889283;29;20525;-94
2023/11/18 05:45:36;;;;;;;18.55;2.42;;;;;;;12.25;100.00;99097.75;4866769;29;20095;-96
2023/11/18 05:48:03;;;;;;;26.80;3.25;;;;;;;12.26;100.00;99096.75;4872148;29;20467;-96
2023/11/18 05:50:29;;;;;;;24.90;3.78;;;;;;;12.28;100.00;99094.75;4894155;29;20029;-95
2023/11/18 05:52:55;;;;;;;24.90;3.75;;;;;;;12.34;100.00;99101.09;4889740;29;20127;-95
2023/11/18 05:55:21;;;;;;;21.38;3.40;;;;;;;12.35;100.00;99102.75;4875600;29;20472;-96
2023/11/18 05:57:47;;;;;;;32.63;3.35;;;;;;;12.37;100.00;99108.69;4882918;29;20069;-95
2023/11/18 06:00:19;;;;;;;26.63;3.50;;;;;;;12.42;100.00;99100.19;4873852;29;20055;-94
2023/11/18 06:02:45;;;;;;;22.80;3.95;;;;;;;12.40;100.00;99087.13;4884077;29;20046;-95
2023/11/18 06:05:12;;;;;;;29.73;3.00;;;;;;;12.42;100.00;99089.59;4896234;29;20032;-95
2023/11/18 06:07:43;;;;;;;24.23;3.53;;;;;;;12.44;100.00;99095.50;4863990;29;20036;-94
2023/11/18 06:10:09;;;;;;;28.10;3.42;;;;;;;12.44;100.00;99097.34;4881043;29;20048;-95
2023/11/18 06:12:37;;;;;;;31.08;3.42;;;;;;;12.42;100.00;99094.88;4866001;29;20080;-94
2023/11/18 06:15:03;;;;;;;28.67;3.47;;;;;;;12.40;100.00;99091.59;4864612;29;20064;-94
2023/11/18 06:17:28;;;;;;;32.28;4.22;;;;;;;12.40;100.00;99087.13;4881158;29;20056;-95
2023/11/18 06:19:54;;;;;;;31.48;3.60;;;;;;;12.39;100.00;99079.38;4878669;29;20040;-95
2023/11/18 06:22:20;;;;;;;20.58;3.50;;;;;;;12.40;100.00;99076.53;4863685;29;20041;-82
2023/11/18 06:24:45;;;;;;;31.90;3.80;;;;;;;12.44;100.00;99076.13;4895102;29;20415;-94
2023/11/18 06:27:12;;;;;;;22.83;3.50;;;;;;;12.42;100.00;99064.91;4886698;29;20041;-95
2023/11/18 06:29:37;;;;;;;22.55;3.30;;;;;;;12.39;100.00;99074.06;4907035;29;20135;-94
2023/11/18 06:32:05;;;;;;;21.17;2.92;;;;;;;12.40;100.00;99073.03;4889855;29;20080;-95
2023/11/18 06:34:32;;;;;;;16.98;2.78;;;;;;;12.39;100.00;99068.75;4876502;29;20033;-93
2023/11/18 06:36:58;;;;;;;19.23;2.88;;;;;;;12.39;100.00;99060.81;4878354;29;20044;-95
2023/11/18 06:39:29;;;;;;;36.25;3.28;;;;;;;12.38;100.00;99067.09;4860650;29;20037;-95
2023/11/18 06:41:58;;;;;;;25.08;4.10;;;;;;;12.40;100.00;99067.75;4896540;29;20444;-93
2023/11/18 06:44:24;;;;;;;24.88;3.50;;;;;;;12.37;100.00;99065.47;4879765;29;20052;-95
2023/11/18 06:46:50;;;;;;;24.77;4.47;;;;;;;12.37;100.00;99070.78;4862068;29;20040;-94
2023/11/18 06:49:16;;;;;;;25.65;2.63;;;;;;;12.36;100.00;99067.28;4875219;29;20444;-94
2023/11/18 06:51:43;;;;;;;24.02;3.75;;;;;;;12.39;100.00;99066.13;4879661;29;20063;-94
2023/11/18 06:54:09;;;;;;;26.48;3.80;;;;;;;12.38;100.00;99056.50;4870672;29;20379;-95
2023/11/18 06:56:42;;;;;;;21.88;2.85;;;;;;;12.41;100.00;99064.06;4880120;29;20123;-94
2023/11/18 06:59:12;;;;;;;19.73;3.15;;;;;;;12.37;100.00;99063.66;4874323;29;20035;-94
2023/11/18 07:01:42;;;;;;;23.67;3.05;;;;;;;12.33;100.00;99057.06;4888737;29;20084;-94
2023/11/18 07:04:08;;;;;;;23.23;3.70;;;;;;;12.34;100.00;99053.41;4877193;29;20033;-96
2023/11/18 07:06:37;;;;;;;32.95;4.20;;;;;;;12.33;100.00;99065.03;4875079;29;20060;-96
2023/11/18 07:09:12;;;;;;;23.60;3.45;;;;;;;12.35;100.00;99064.84;4874213;29;20104;-95
2023/11/18 07:11:40;;;;;;;25.73;3.33;;;;;;;12.31;100.00;99051.13;4892028;29;20071;-94
2023/11/18 07:14:08;;;;;;;15.75;3.15;;;;;;;12.32;100.00;99041.38;4864236;29;20037;-94
2023/11/18 07:16:35;;;;;;;22.63;3.25;;;;;;;12.31;100.00;99043.19;4877591;29;20406;-94
2023/11/18 07:19:00;;;;;;;24.13;3.38;;;;;;;12.31;100.00;99037.09;4895492;29;20044;-94
2023/11/18 07:21:26;;;;;;;22.02;3.78;;;;;;;12.28;100.00;99044.41;4880490;29;20040;-94
2023/11/18 07:23:52;;;;;;;23.23;3.55;;;;;;;12.28;100.00;99036.44;4867755;29;20029;-94
2023/11/18 07:26:17;;;;;;;16.70;3.20;;;;;;;12.25;100.00;99028.88;4896172;29;20075;-82
2023/11/18 07:28:44;;;;;;;22.02;2.45;;;;;;;12.24;100.00;99029.91;4884661;29;20120;-93
2023/11/18 07:31:10;;;;;;;20.10;3.35;;;;;;;12.25;100.00;99025.41;4877989;29;20116;-94
2023/11/18 07:33:36;;;;;;;22.75;3.63;;;;;;;12.22;100.00;99016.03;4877169;29;20119;-93
2023/11/18 07:36:05;;;;;;;23.95;3.33;;;;;;;12.20;100.00;99018.03;4876839;29;20052;-93
2023/11/18 07:38:32;;;;;;;21.67;3.13;;;;;;;12.17;100.00;99023.72;4877714;29;20036;-95
2023/11/18 07:40:59;;;;;;;23.83;3.58;;;;;;;12.12;100.00;99011.03;4878804;29;20538;-95
2023/11/18 07:43:28;;;;;;;39.28;4.28;;;;;;;12.08;100.00;99015.09;4875085;29;20037;-95
2023/11/18 07:45:54;;;;;;;27.20;3.28;;;;;;;12.09;100.00;99014.06;4866652;29;20205;-96
2023/11/18 07:48:20;;;;;;;22.75;4.43;;;;;;;12.04;100.00;99005.84;4888724;29;20048;-95
2023/11/18 07:50:49;;;;;;;24.02;3.30;;;;;;;12.03;100.00;99009.50;4864581;29;20025;-94
2023/11/18 07:53:15;;;;;;;31.45;5.00;;;;;;;12.07;100.00;99026.66;4898477;29;20448;-95
2023/11/18 07:55:42;;;;;;;27.17;3.95;;;;;;;12.07;100.00;99039.09;4898633;29;20484;-95
2023/11/18 07:58:12;;;;;;;29.75;3.72;;;;;;;12.04;100.00;99032.31;4883447;29;20037;-95
2023/11/18 08:00:39;;;;;;;31.48;6.57;;;;;;;12.11;100.00;99029.78;4876013;29;20044;-94
2023/11/18 08:03:14;;;;;;;28.13;5.47;;;;;;;12.10;100.00;99026.31;4896186;29;20035;-95
2023/11/18 08:05:43;;;;;;;25.17;5.78;;;;;;;12.10;100.00;99028.16;4885296;29;20198;-96
2023/11/18 08:08:10;;;;;;;32.40;6.32;;;;;;;12.08;100.00;99027.50;4868512;29;20038;-94
2023/11/18 08:10:40;;;;;;;23.48;3.92;;;;;;;12.09;100.00;99026.50;4877910;29;20093;-94
2023/11/18 08:13:09;;;;;;;28.88;4.63;;;;;;;12.08;100.00;99028.34;4880769;29;20032;-95
2023/11/18 08:15:38;;;;;;;28.55;4.40;;;;;;;12.09;100.00;99023.88;4857582;29;20384;-94
2023/11/18 08:18:04;;;;;;;25.58;5.07;;;;;;;12.10;100.00;99023.69;4895872;29;20119;-95
2023/11/18 08:20:30;;;;;;;30.38;6.65;;;;;;;12.11;100.00;99025.31;4882027;29;20555;-94
2023/11/18 08:22:56;;;;;;;31.35;5.30;;;;;;;12.05;100.00;99018.09;4877895;29;20036;-94
2023/11/18 08:25:22;;;;;;;29.25;7.47;;;;;;;12.11;100.00;99029.78;4894039;29;20127;-96
2023/11/18 08:27:49;;;;;;;24.95;7.22;;;;;;;12.12;100.00;99031.44;4864229;29;20040;-96
2023/11/18 08:30:17;;;;;;;26.77;6.28;;;;;;;12.15;100.00;99017.81;4888027;29;20144;-94
2023/11/18 08:32:45;;;;;;;29.63;6.90;;;;;;;12.19;100.00;99008.47;4880855;29;20021;-95
2023/11/18 08:35:15;;;;;;;42.03;14.35;;;;;;;12.15;100.00;99009.88;4900632;29;20123;-96
2023/11/18 08:37:45;;;;;;;26.10;5.20;;;;;;;12.19;100.00;99016.41;4885792;29;20506;-96
2023/11/18 08:40:21;;;;;;;33.25;10.15;;;;;;;12.21;100.00;99008.28;4883813;29;20091;-95
2023/11/18 08:42:53;;;;;;;39.78;12.85;;;;;;;12.25;100.00;99007.69;4884537;29;20495;-96
2023/11/18 08:45:29;;;;;;;30.65;5.45;;;;;;;12.26;100.00;99019.91;4888088;29;20122;-95
2023/11/18 08:48:01;;;;;;;32.50;5.40;;;;;;;12.31;100.00;99013.25;4883710;29;20039;-95
2023/11/18 08:50:28;;;;;;;36.28;10.80;;;;;;;12.28;100.00;99012.63;4869478;29;20028;-94
2023/11/18 08:52:58;;;;;;;24.33;5.20;;;;;;;12.35;100.00;99003.91;4895837;29;20032;-93
2023/11/18 08:55:38;;;;;;;30.13;4.97;;;;;;;12.36;100.00;98994.97;4880520;29;20686;-94
2023/11/18 08:58:15;;;;;;;30.13;8.15;;;;;;;12.38;100.00;99006.16;4890519;29;20252;-96
2023/11/18 09:03:27;;;;;;;45.22;12.82;;;;;;;12.46;100.00;98999.91;4902354;29;20074;-96
2023/11/18 09:06:03;;;;;;;36.85;9.30;;;;;;;12.48;100.00;98997.88;4881256;29;20391;-95
2023/11/18 09:08:34;;;;;;;31.25;5.13;;;;;;;12.42;100.00;98999.47;4880911;29;20032;-94
2023/11/18 09:11:06;;;;;;;24.52;5.20;;;;;;;12.50;100.00;98995.88;4869132;29;20055;-96
2023/11/18 09:13:34;;;;;;;26.00;5.80;;;;;;;12.47;100.00;98999.72;4912820;29;20043;-95
2023/11/18 09:16:02;;;;;;;30.80;6.00;;;;;;;12.50;100.00;98995.88;4880503;29;20119;-94
2023/11/18 09:18:33;;;;;;;35.63;4.68;;;;;;;12.49;100.00;98997.69;4871058;29;20055;-96
2023/11/18 09:21:01;;;;;;;21.02;3.55;;;;;;;12.53;100.00;99008.72;4879928;29;20597;-95
2023/11/18 09:23:28;;;;;;;21.38;3.33;;;;;;;12.58;100.00;99010.81;4896812;29;20047;-94
2023/11/18 09:25:54;;;;;;;24.17;4.22;;;;;;;12.58;100.00;99011.59;4880150;29;20032;-94
2023/11/18 09:28:24;;;;;;;39.08;5.10;;;;;;;12.61;100.00;99005.13;4862352;29;20084;-96
2023/11/18 09:30:53;;;;;;;29.80;4.50;;;;;;;12.66;100.00;99005.38;4875612;29;20123;-96
2023/11/18 09:33:28;;;;;;;25.48;4.63;;;;;;;12.62;100.00;98998.78;4878699;29;20036;-96
2023/11/18 09:36:01;;;;;;;33.97;4.82;;;;;;;12.64;100.00;98999.44;4889145;29;20475;-96
2023/11/18 09:38:32;;;;;;;27.10;5.35;;;;;;;12.69;100.00;99012.94;4897726;29;20047;-93
2023/11/18 09:41:02;;;;;;;35.17;5.00;;;;;;;12.63;100.00;99014.50;4898788;29;20054;-95
2023/11/18 09:43:45;;;;;;;34.72;4.93;;;;;;;12.71;100.00;99012.72;4894439;29;20072;-95
2023/11/18 09:46:12;;;;;;;22.10;3.67;;;;;;;12.68;100.00;99002.53;4888601;29;20075;-96
2023/11/18 09:48:59;;;;;;;23.45;4.22;;;;;;;12.71;100.00;99005.59;4900571;29;20037;-96
2023/11/18 09:51:30;;;;;;;37.03;6.00;;;;;;;12.68;100.00;99013.91;4880118;29;20051;-94
2023/11/18 09:54:16;;;;;;;24.70;4.07;;;;;;;12.75;100.00;99017.44;4886823;29;20039;-96
2023/11/18 09:57:13;;;;;;;26.77;4.20;;;;;;;12.74;100.00;99015.78;4883080;29;20044;-94
2023/11/18 09:59:44;;;;;;;;;;;;;;;12.72;100.00;99019.66;4894467;29;20040;-95
2023/11/18 10:02:11;;;;;;;30.38;4.70;;;;;;;12.71;100.00;99016.19;4901286;29;19923;-95
2023/11/18 10:04:39;;;;;;;21.77;4.20;;;;;;;12.80;100.00;99018.69;4882980;29;20081;-95
2023/11/18 10:07:11;;;;;;;35.63;5.07;;;;;;;12.85;100.00;99019.72;4900683;29;20044;-95
2023/11/18 10:09:39;;;;;;;25.77;4.35;;;;;;;12.86;100.00;99026.69;4884048;29;20092;-94
2023/11/18 10:12:08;;;;;;;30.60;3.92;;;;;;;12.92;100.00;99019.78;4869306;29;20040;-96
2023/11/18 10:14:35;;;;;;;18.70;3.72;;;;;;;12.92;100.00;99014.47;4878898;29;20043;-95
2023/11/18 10:17:06;;;;;;;18.80;3.40;;;;;;;12.94;100.00;99011.63;4894063;29;20119;-94
2023/11/18 10:19:59;;;;;;;24.55;3.65;;;;;;;12.95;100.00;99015.94;4884550;29;20050;-94
2023/11/18 10:22:29;;;;;;;19.08;3.25;;;;;;;12.97;100.00;99006.75;4880830;29;20115;-94
2023/11/18 10:24:56;;;;;;;16.67;3.42;;;;;;;12.97;100.00;99013.88;4886433;29;20049;-96
2023/11/18 10:27:25;;;;;;;18.42;3.38;;;;;;;13.02;100.00;99022.91;4885958;29;20159;-95
2023/11/18 10:29:55;;;;;;;30.00;3.83;;;;;;;13.08;100.00;99037.22;4879743;29;20146;-96
2023/11/18 10:32:22;;;;;;;14.32;3.10;;;;;;;13.02;100.00;99038.81;4894000;29;20042;-95
2023/11/18 10:34:51;;;;;;;24.08;3.22;;;;;;;13.05;100.00;99055.34;4880912;29;20021;-96
2023/11/18 10:37:18;;;;;;;13.90;2.20;;;;;;;13.01;100.00;99044.34;4864474;29;20045;-95
2023/11/18 10:39:51;;;;;;;14.48;2.80;;;;;;;13.02;100.00;99041.47;4869407;29;20218;-96
2023/11/18 10:42:20;;;;;;;22.40;2.92;;;;;;;13.01;100.00;99039.81;4885559;29;20716;-96
2023/11/18 10:44:58;;;;;;;20.05;3.65;;;;;;;13.02;100.00;99038.00;4905613;29;20102;-96
2023/11/18 10:47:28;;;;;;;19.20;3.55;;;;;;;12.99;100.00;99044.53;4898717;29;20072;-95
2023/11/18 10:49:58;;;;;;;19.05;3.65;;;;;;;12.92;100.00;99041.00;4882969;29;20052;-96
2023/11/18 10:52:34;;;;;;;21.23;4.30;;;;;;;12.84;100.00;99049.94;4883474;29;20049;-95
2023/11/18 10:55:07;;;;;;;19.90;3.45;;;;;;;12.80;100.00;99031.94;4873240;29;20047;-96
2023/11/18 10:57:50;;;;;;;15.65;2.92;;;;;;;12.72;100.00;99022.31;4897052;29;20153;-95
2023/11/18 11:00:18;;;;;;;16.25;2.80;;;;;;;12.68;100.00;99024.53;4877721;29;20103;-96
2023/11/18 11:02:47;;;;;;;16.13;2.40;;;;;;;12.72;100.00;99033.75;4901462;29;20045;-96
2023/11/18 11:05:35;;;;;;;16.13;2.60;;;;;;;12.70;100.00;99013.72;4880159;29;20044;-96
2023/11/18 11:08:05;;;;;;;16.95;3.72;;;;;;;12.70;100.00;99037.59;4872546;29;20028;-95
2023/11/18 11:10:32;;;;;;;16.25;2.72;;;;;;;12.67;100.00;99028.19;4876363;29;20036;-90
2023/11/18 11:13:01;;;;;;;20.83;2.97;;;;;;;12.70;100.00;99037.59;4885142;29;20032;-95
2023/11/18 11:15:32;;;;;;;17.90;3.30;;;;;;;12.71;100.00;99034.75;4868818;29;20032;-95
2023/11/18 11:18:09;;;;;;;18.05;5.05;;;;;;;12.77;100.00;99041.91;4864464;29;20476;-95
2023/11/18 11:20:42;;;;;;;15.60;4.10;;;;;;;12.80;100.00;99039.91;4878073;29;20072;-95
2023/11/18 11:23:35;;;;;;;31.48;13.85;;;;;;;12.79;100.00;99033.78;4868431;29;20119;-95
2023/11/18 11:26:13;;;;;;;18.42;7.25;;;;;;;12.75;100.00;99038.66;4893588;29;20040;-96
2023/11/18 11:28:55;;;;;;;23.67;8.40;;;;;;;12.76;100.00;99029.69;4867473;29;20045;-96
2023/11/18 11:31:32;;;;;;;19.92;5.90;;;;;;;12.80;100.00;99039.91;4887056;29;20036;-96
2023/11/18 11:34:02;;;;;;;24.33;10.93;;;;;;;12.82;100.00;99035.22;4882385;29;20467;-95
2023/11/18 11:36:34;;;;;;;36.38;12.32;;;;;;;12.87;100.00;99027.50;4882487;29;20471;-95
2023/11/18 11:39:01;;;;;;;23.13;6.63;;;;;;;12.85;100.00;99024.25;4885408;29;20044;-95
2023/11/18 11:41:28;;;;;;;29.30;10.32;;;;;;;12.87;100.00;99020.38;4901059;29;20033;-96
2023/11/18 11:43:58;;;;;;;24.60;6.93;;;;;;;12.88;100.00;99010.59;4878492;29;20040;-96
2023/11/18 11:46:34;;;;;;;54.30;29.33;;;;;;;12.95;100.00;99019.38;4891561;29;20383;-95
2023/11/18 11:49:08;;;;;;;50.10;24.10;;;;;;;13.00;100.00;99018.81;4903336;29;20095;-96
2023/11/18 11:51:44;;;;;;;36.08;10.32;;;;;;;12.99;100.00;99019.81;4871311;29;20074;-96